createdAt,value
2023-01-19T00:01:07.936Z,4.56
2023-01-19T00:03:39.926Z,4.58
2023-01-19T00:06:12.451Z,4.34
2023-01-19T00:08:46.131Z,4.59
2023-01-19T00:11:18.918Z,4.64
2023-01-19T00:13:51.207Z,4.64
2023-01-19T00:16:23.464Z,4.64
2023-01-19T00:18:55.720Z,4.65
2023-01-19T00:21:27.691Z,4.67
2023-01-19T00:23:59.651Z,4.68
2023-01-19T00:26:31.616Z,4.55
2023-01-19T00:29:04.793Z,4.64
2023-01-19T00:31:37.089Z,4.68
2023-01-19T00:34:09.311Z,4.59
2023-01-19T00:36:41.835Z,4.66
2023-01-19T00:39:14.113Z,4.56
2023-01-19T00:42:04.502Z,4.58
2023-01-19T00:44:36.438Z,4.66
2023-01-19T00:47:08.506Z,4.68
2023-01-19T00:49:40.543Z,4.66
2023-01-19T00:52:12.467Z,4.70
2023-01-19T00:54:44.402Z,4.72
2023-01-19T00:57:19.171Z,4.74
2023-01-19T00:59:51.081Z,4.75
2023-01-19T01:02:23.265Z,4.73
2023-01-19T01:04:56.801Z,4.73
2023-01-19T01:07:30.126Z,4.66
2023-01-19T01:10:02.092Z,4.62
2023-01-19T01:12:33.975Z,4.72
2023-01-19T01:15:09.294Z,4.67
2023-01-19T01:17:47.739Z,4.75
2023-01-19T01:20:25.398Z,4.73
2023-01-19T01:22:58.494Z,4.74
2023-01-19T01:25:31.218Z,4.71
2023-01-19T01:28:07.020Z,4.69
2023-01-19T01:30:41.026Z,4.67
2023-01-19T01:33:13.415Z,4.66
2023-01-19T01:35:45.356Z,4.68
2023-01-19T01:38:17.313Z,4.68
2023-01-19T01:40:49.606Z,4.67
2023-01-19T01:43:21.767Z,4.76
2023-01-19T01:45:55.449Z,4.68
2023-01-19T01:48:31.206Z,4.81
2023-01-19T01:51:26.465Z,4.75
2023-01-19T01:54:10.541Z,4.76
2023-01-19T01:56:47.945Z,4.78
2023-01-19T01:59:40.721Z,4.79
2023-01-19T02:02:40.188Z,4.83
2023-01-19T02:05:17.531Z,4.82
2023-01-19T02:08:15.560Z,4.76
2023-01-19T02:11:07.593Z,4.62
2023-01-19T02:13:46.993Z,4.51
2023-01-19T02:16:19.390Z,4.50
2023-01-19T02:18:52.484Z,4.43
2023-01-19T02:21:58.010Z,4.33
2023-01-19T02:24:31.550Z,4.05
2023-01-19T02:27:05.229Z,4.02
2023-01-19T02:29:37.406Z,4.26
2023-01-19T02:32:09.540Z,4.23
2023-01-19T02:34:41.637Z,4.22
2023-01-19T02:37:18.528Z,4.21
2023-01-19T02:39:59.485Z,4.05
2023-01-19T02:42:47.748Z,4.19
2023-01-19T02:45:23.986Z,4.23
2023-01-19T02:47:57.143Z,4.24
2023-01-19T02:50:37.409Z,4.21
2023-01-19T02:53:24.348Z,4.22
2023-01-19T02:56:46.281Z,4.11
2023-01-19T03:00:01.158Z,4.05
2023-01-19T03:03:32.863Z,3.98
2023-01-19T03:06:45.199Z,3.94
2023-01-19T03:09:46.102Z,3.89
2023-01-19T03:12:38.831Z,3.87
2023-01-19T03:15:23.414Z,3.90
2023-01-19T03:18:00.844Z,3.89
2023-01-19T03:20:32.764Z,3.88
2023-01-19T03:23:11.447Z,3.78
2023-01-19T03:25:47.769Z,3.85
2023-01-19T03:28:24.127Z,3.55
2023-01-19T03:31:19.273Z,3.85
2023-01-19T03:33:59.272Z,3.84
2023-01-19T03:36:54.894Z,3.77
2023-01-19T03:39:28.943Z,3.75
2023-01-19T03:42:11.671Z,3.70
2023-01-19T03:44:46.340Z,3.60
2023-01-19T03:47:20.565Z,3.73
2023-01-19T03:49:54.383Z,3.69
2023-01-19T03:52:36.255Z,3.65
2023-01-19T03:55:09.835Z,3.62
2023-01-19T03:57:41.796Z,3.57
2023-01-19T04:00:14.809Z,3.61
2023-01-19T04:02:46.816Z,3.54
2023-01-19T04:05:19.242Z,3.61
2023-01-19T04:07:52.867Z,3.64
2023-01-19T04:10:25.244Z,3.64
2023-01-19T04:12:59.550Z,3.39
2023-01-19T04:15:32.421Z,3.63
2023-01-19T04:18:05.307Z,3.62
2023-01-19T04:20:37.846Z,3.69
2023-01-19T04:23:09.755Z,3.70
2023-01-19T04:25:41.662Z,3.75
2023-01-19T04:28:13.556Z,3.78
2023-01-19T04:30:45.526Z,3.74
2023-01-19T04:33:17.830Z,3.71
2023-01-19T04:35:54.459Z,3.75
2023-01-19T04:38:27.724Z,3.74
2023-01-19T04:40:59.663Z,3.70
2023-01-19T04:43:31.645Z,3.62
2023-01-19T04:46:03.697Z,3.63
2023-01-19T04:48:35.729Z,3.61
2023-01-19T04:51:08.824Z,3.63
2023-01-19T04:53:40.783Z,3.64
2023-01-19T04:56:12.711Z,3.66
2023-01-19T04:58:44.926Z,3.67
2023-01-19T05:01:16.945Z,3.67
2023-01-19T05:03:48.913Z,3.67
2023-01-19T05:06:20.897Z,3.68
2023-01-19T05:08:52.865Z,3.62
2023-01-19T05:11:24.918Z,3.61
2023-01-19T05:13:56.882Z,3.58
2023-01-19T05:16:28.847Z,3.60
2023-01-19T05:19:01.042Z,3.49
2023-01-19T05:21:33.015Z,3.62
2023-01-19T05:24:05.287Z,3.65
2023-01-19T05:26:37.507Z,3.71
2023-01-19T05:29:10.457Z,3.72
2023-01-19T05:31:42.432Z,3.77
2023-01-19T05:34:14.753Z,3.78
2023-01-19T05:36:46.670Z,3.81
2023-01-19T05:39:18.812Z,3.74
2023-01-19T05:41:50.708Z,3.77
2023-01-19T05:44:23.094Z,3.77
2023-01-19T05:46:55.002Z,3.79
2023-01-19T05:49:27.062Z,3.77
2023-01-19T05:51:59.004Z,3.76
2023-01-19T05:54:31.172Z,3.75
2023-01-19T05:57:04.163Z,3.74
2023-01-19T05:59:36.146Z,3.75
2023-01-19T06:02:08.749Z,3.78
2023-01-19T06:04:40.841Z,3.79
2023-01-19T06:07:12.843Z,3.79
2023-01-19T06:09:44.768Z,3.82
2023-01-19T06:12:16.654Z,3.81
2023-01-19T06:14:48.648Z,3.76
2023-01-19T06:17:20.646Z,3.73
2023-01-19T06:19:52.578Z,3.86
2023-01-19T06:22:24.726Z,3.84
2023-01-19T06:24:56.677Z,3.80
2023-01-19T06:27:28.625Z,3.80
2023-01-19T06:30:00.545Z,3.49
2023-01-19T06:32:32.750Z,3.79
2023-01-19T06:35:06.300Z,3.72
2023-01-19T06:37:38.240Z,3.76
2023-01-19T06:40:13.612Z,3.69
2023-01-19T06:42:46.320Z,3.75
2023-01-19T06:45:18.541Z,3.69
2023-01-19T06:47:50.515Z,3.77
2023-01-19T06:50:22.449Z,3.79
2023-01-19T06:52:54.549Z,3.76
2023-01-19T06:55:28.014Z,3.78
2023-01-19T06:58:00.596Z,3.80
2023-01-19T07:00:32.569Z,3.79
2023-01-19T07:03:08.057Z,3.81
2023-01-19T07:05:40.063Z,3.83
2023-01-19T07:08:12.021Z,3.84
2023-01-19T07:11:25.247Z,3.87
2023-01-19T07:13:38.065Z,3.88
2023-01-19T07:16:13.067Z,3.88
2023-01-19T07:18:45.331Z,3.67
2023-01-19T07:21:18.034Z,3.94
2023-01-19T07:23:52.332Z,3.99
2023-01-19T07:26:25.417Z,4.07
2023-01-19T07:28:57.463Z,4.14
2023-01-19T07:31:29.835Z,4.20
2023-01-19T07:34:01.802Z,4.24
2023-01-19T07:36:33.862Z,4.21
2023-01-19T07:39:05.875Z,4.25
2023-01-19T07:41:37.769Z,4.19
2023-01-19T07:44:09.921Z,4.26
2023-01-19T07:46:43.357Z,4.23
2023-01-19T07:49:15.681Z,4.22
2023-01-19T07:51:47.700Z,4.17
2023-01-19T07:54:20.851Z,4.14
2023-01-19T07:56:56.123Z,4.03
2023-01-19T07:59:32.436Z,4.10
2023-01-19T08:02:04.507Z,3.85
2023-01-19T08:04:36.541Z,3.86
2023-01-19T08:07:09.640Z,4.06
2023-01-19T08:09:41.606Z,4.03
2023-01-19T08:12:13.566Z,3.96
2023-01-19T08:14:45.516Z,4.03
2023-01-19T08:17:17.420Z,4.02
2023-01-19T08:19:49.373Z,3.99
2023-01-19T08:22:21.373Z,4.01
2023-01-19T08:24:54.933Z,4.01
2023-01-19T08:27:26.955Z,4.01
2023-01-19T08:29:59.255Z,4.02
2023-01-19T08:32:31.202Z,3.97
2023-01-19T08:35:03.407Z,3.97
2023-01-19T08:37:35.327Z,4.07
2023-01-19T08:40:08.601Z,4.07
2023-01-19T08:42:40.487Z,4.04
2023-01-19T08:45:12.683Z,4.01
2023-01-19T08:47:44.875Z,3.98
2023-01-19T08:50:17.133Z,3.99
2023-01-19T08:52:49.094Z,3.97
2023-01-19T08:55:21.109Z,3.96
2023-01-19T08:57:58.153Z,3.97
2023-01-19T09:00:31.816Z,3.84
2023-01-19T09:03:06.522Z,3.96
2023-01-19T09:05:39.140Z,3.97
2023-01-19T09:08:14.664Z,3.98
2023-01-19T09:10:50.144Z,3.99
2023-01-19T09:13:22.206Z,3.95
2023-01-19T09:15:54.287Z,4.02
2023-01-19T09:18:26.211Z,4.09
2023-01-19T09:20:58.346Z,4.12
2023-01-19T09:23:30.653Z,4.10
2023-01-19T09:26:05.413Z,4.21
2023-01-19T09:28:38.895Z,4.32
2023-01-19T09:31:11.100Z,4.40
2023-01-19T09:33:43.077Z,4.41
2023-01-19T09:36:15.390Z,4.39
2023-01-19T09:38:47.402Z,4.41
2023-01-19T09:41:25.090Z,4.50
2023-01-19T09:44:01.195Z,4.48
2023-01-19T09:46:42.141Z,4.53
2023-01-19T09:49:41.206Z,4.63
2023-01-19T09:52:15.703Z,4.81
2023-01-19T09:54:56.551Z,5.03
2023-01-19T09:57:30.379Z,5.13
2023-01-19T10:00:10.808Z,5.21
2023-01-19T10:03:16.572Z,5.27
2023-01-19T10:06:10.563Z,5.49
2023-01-19T10:09:05.699Z,5.60
2023-01-19T10:11:53.690Z,5.61
2023-01-19T10:14:43.210Z,5.63
2023-01-19T10:18:15.965Z,5.72
2023-01-19T10:21:10.920Z,5.67
2023-01-19T10:23:58.575Z,5.69
2023-01-19T10:26:54.272Z,5.74
2023-01-19T10:29:38.748Z,5.87
2023-01-19T10:32:23.182Z,6.01
2023-01-19T10:34:55.779Z,6.25
2023-01-19T10:37:44.795Z,6.32
2023-01-19T10:40:43.117Z,6.27
2023-01-19T10:43:33.872Z,6.33
2023-01-19T10:46:17.332Z,6.53
2023-01-19T10:48:52.618Z,6.70
2023-01-19T10:51:24.832Z,6.82
2023-01-19T10:54:03.513Z,6.93
2023-01-19T10:56:38.723Z,7.27
2023-01-19T10:59:31.798Z,7.43
2023-01-19T11:02:17.944Z,7.52
2023-01-19T11:04:53.181Z,7.44
2023-01-19T11:07:33.757Z,7.40
2023-01-19T11:10:17.508Z,7.35
2023-01-19T11:13:12.769Z,7.33
2023-01-19T11:15:59.720Z,7.42
2023-01-19T11:18:39.931Z,7.42
2023-01-19T11:21:15.714Z,7.53
2023-01-19T11:23:52.912Z,7.68
2023-01-19T11:26:40.798Z,7.78
2023-01-19T11:29:26.372Z,7.74
2023-01-19T11:32:18.489Z,8.02
2023-01-19T11:34:50.582Z,8.13
2023-01-19T11:37:28.778Z,8.23
2023-01-19T11:40:05.507Z,8.31
2023-01-19T11:42:38.509Z,8.55
2023-01-19T11:45:19.183Z,8.78
2023-01-19T11:47:52.650Z,8.90
2023-01-19T11:50:28.505Z,9.00
2023-01-19T11:53:30.291Z,8.99
2023-01-19T11:56:13.467Z,9.02
2023-01-19T12:07:50.273Z,8.91
2023-01-19T12:10:33.825Z,8.59
2023-01-19T12:13:05.935Z,8.40
2023-01-19T12:15:44.571Z,8.17
2023-01-19T12:18:24.434Z,8.02
2023-01-19T12:20:58.803Z,8.02
2023-01-19T12:23:46.082Z,7.88
2023-01-19T12:26:49.563Z,7.84
2023-01-19T12:29:26.896Z,7.83
2023-01-19T12:32:39.240Z,7.64
2023-01-19T12:35:54.842Z,7.61
2023-01-19T12:38:57.317Z,7.73
2023-01-19T12:41:39.159Z,7.77
2023-01-19T12:44:11.339Z,7.78
2023-01-19T12:46:54.571Z,7.98
2023-01-19T12:49:40.537Z,8.21
2023-01-19T12:52:24.735Z,8.21
2023-01-19T12:55:14.675Z,8.32
2023-01-19T12:58:04.237Z,8.38
2023-01-19T13:00:45.547Z,8.47
2023-01-19T13:03:17.476Z,8.40
2023-01-19T13:05:58.694Z,8.33
2023-01-19T13:08:59.638Z,8.02
2023-01-19T13:11:34.582Z,7.75
2023-01-19T13:14:37.340Z,7.43
2023-01-19T13:17:33.602Z,7.25
2023-01-19T13:23:26.358Z,6.32
2023-01-19T13:26:14.959Z,7.04
2023-01-19T13:29:06.989Z,6.34
2023-01-19T13:31:42.865Z,6.75
2023-01-19T13:34:25.770Z,7.25
2023-01-19T13:36:59.736Z,7.33
2023-01-19T13:39:44.528Z,6.80
2023-01-19T13:42:33.415Z,7.07
2023-01-19T13:45:37.183Z,7.56
2023-01-19T13:48:17.888Z,7.22
2023-01-19T13:51:05.081Z,7.20
2023-01-19T13:53:37.320Z,6.53
2023-01-19T13:56:20.919Z,7.38
2023-01-19T13:59:05.198Z,7.46
2023-01-19T14:01:44.015Z,7.09
2023-01-19T14:04:34.194Z,6.95
2023-01-19T14:07:23.621Z,7.19
2023-01-19T14:10:09.483Z,6.64
2023-01-19T14:12:58.153Z,7.20
2023-01-19T14:15:35.438Z,6.43
2023-01-19T14:18:17.925Z,7.06
2023-01-19T14:21:03.996Z,6.88
2023-01-19T14:23:55.187Z,6.93
2023-01-19T14:26:54.752Z,6.63
2023-01-19T14:29:33.276Z,6.73
2023-01-19T14:32:21.941Z,6.61
2023-01-19T14:35:05.838Z,6.58
2023-01-19T14:37:52.520Z,6.36
2023-01-19T14:40:25.335Z,6.43
2023-01-19T14:43:06.325Z,5.46
2023-01-19T14:45:47.662Z,5.45
2023-01-19T14:48:22.395Z,5.84
2023-01-19T14:51:06.063Z,5.55
2023-01-19T14:53:49.911Z,4.98
2023-01-19T14:56:35.810Z,6.10
2023-01-19T14:59:14.214Z,5.70
2023-01-19T15:01:46.801Z,4.82
2023-01-19T15:04:19.275Z,5.31
2023-01-19T15:06:56.806Z,5.83
2023-01-19T15:09:30.319Z,5.13
2023-01-19T15:12:03.140Z,5.96
2023-01-19T15:14:39.258Z,5.96
2023-01-19T15:17:25.547Z,4.80
2023-01-19T15:19:58.077Z,5.87
2023-01-19T15:22:34.345Z,5.98
2023-01-19T15:25:17.803Z,5.54
2023-01-19T15:27:58.544Z,5.96
2023-01-19T15:30:52.377Z,5.35
2023-01-19T15:33:42.782Z,5.35
2023-01-19T15:36:18.600Z,5.07
2023-01-19T15:38:54.163Z,5.62
2023-01-19T15:41:38.633Z,4.91
2023-01-19T15:44:15.739Z,4.66
2023-01-19T15:46:53.867Z,5.86
2023-01-19T15:49:27.687Z,5.24
2023-01-19T15:52:02.933Z,5.12
2023-01-19T15:54:41.315Z,5.01
2023-01-19T15:57:17.492Z,6.10
2023-01-19T15:59:53.729Z,6.09
2023-01-19T16:02:35.483Z,6.03
2023-01-19T16:05:08.649Z,5.29
2023-01-19T16:07:43.525Z,5.29
2023-01-19T16:10:17.568Z,5.86
2023-01-19T16:12:53.407Z,5.43
2023-01-19T16:15:28.596Z,5.42
2023-01-19T16:18:01.129Z,6.05
2023-01-19T16:20:33.755Z,5.68
2023-01-19T16:23:14.972Z,5.17
2023-01-19T16:26:01.258Z,5.57
2023-01-19T16:28:37.590Z,5.07
2023-01-19T16:31:09.877Z,6.62
2023-01-19T16:33:45.992Z,5.90
2023-01-19T16:36:24.535Z,6.25
2023-01-19T16:39:04.142Z,5.64
2023-01-19T16:41:38.011Z,5.71
2023-01-19T16:44:17.165Z,5.55
2023-01-19T16:46:55.374Z,5.67
2023-01-19T16:49:28.565Z,5.00
2023-01-19T16:52:01.603Z,6.00
2023-01-19T16:54:34.474Z,4.99
2023-01-19T16:57:06.848Z,5.83
2023-01-19T16:59:40.002Z,5.79
2023-01-19T17:02:12.621Z,5.45
2023-01-19T17:04:44.876Z,4.90
2023-01-19T17:07:19.080Z,5.54
2023-01-19T17:09:52.620Z,4.58
2023-01-19T17:12:25.089Z,5.02
2023-01-19T17:14:57.311Z,5.14
2023-01-19T17:17:38.334Z,4.27
2023-01-19T17:20:11.726Z,4.74
2023-01-19T17:22:49.793Z,5.49
2023-01-19T17:25:47.299Z,5.50
2023-01-19T17:28:20.991Z,4.82
2023-01-19T17:30:54.026Z,5.02
2023-01-19T17:33:26.307Z,4.27
2023-01-19T17:36:18.007Z,4.52
2023-01-19T17:44:14.646Z,4.20
2023-01-19T17:46:52.763Z,4.92
2023-01-19T17:49:30.519Z,4.20
2023-01-19T17:52:14.120Z,4.21
2023-01-19T17:54:56.486Z,4.22
2023-01-19T17:57:29.684Z,4.15
2023-01-19T18:01:07.973Z,4.45
2023-01-19T18:07:57.094Z,5.33
2023-01-19T18:11:13.940Z,5.33
2023-01-19T18:17:54.108Z,5.19
2023-01-19T18:21:08.968Z,5.08
2023-01-19T18:28:39.812Z,4.22
2023-01-19T18:31:30.381Z,4.55
2023-01-19T18:35:06.941Z,5.14
2023-01-19T18:37:59.220Z,5.16
2023-01-19T18:40:33.610Z,4.43
2023-01-19T18:43:15.568Z,4.89
2023-01-19T18:46:03.755Z,3.89
2023-01-19T18:48:59.193Z,4.64
2023-01-19T18:51:35.686Z,4.69
2023-01-19T18:54:16.097Z,3.61
2023-01-19T18:56:53.813Z,3.71
2023-01-19T18:59:29.160Z,4.07
2023-01-19T19:02:08.283Z,3.56
2023-01-19T19:05:06.796Z,3.56
2023-01-19T19:10:37.218Z,3.79
2023-01-19T19:13:13.118Z,3.54
2023-01-19T19:15:46.066Z,3.81
2023-01-19T19:18:24.476Z,4.72
2023-01-19T19:21:01.250Z,4.56
2023-01-19T19:23:34.683Z,3.33
2023-01-19T19:26:11.783Z,4.69
2023-01-19T19:31:40.037Z,3.52
2023-01-19T19:34:13.855Z,3.68
2023-01-19T19:36:54.797Z,3.84
2023-01-19T19:39:31.996Z,3.54
2023-01-19T19:42:04.415Z,3.43
2023-01-19T19:44:39.307Z,4.10
2023-01-19T19:47:11.558Z,4.21
2023-01-19T19:49:56.723Z,3.97
2023-01-19T19:52:29.306Z,4.42
2023-01-19T19:58:08.583Z,3.79
2023-01-19T20:00:53.939Z,4.12
2023-01-19T20:03:30.911Z,3.79
2023-01-19T20:06:08.117Z,3.76
2023-01-19T20:08:41.638Z,3.87
2023-01-19T20:11:18.018Z,4.19
2023-01-19T20:13:53.941Z,4.28
2023-01-19T20:16:28.421Z,2.98
2023-01-19T20:19:04.449Z,3.04
2023-01-19T20:21:41.934Z,3.77
2023-01-19T20:24:24.346Z,3.49
2023-01-19T20:27:00.979Z,2.97
2023-01-19T20:29:35.507Z,3.11
2023-01-19T20:32:10.876Z,3.07
2023-01-19T20:34:43.417Z,3.76
2023-01-19T20:37:15.516Z,4.21
2023-01-19T20:39:56.812Z,4.23
2023-01-19T20:42:29.066Z,4.22
2023-01-19T20:45:04.511Z,4.31
2023-01-19T20:47:36.574Z,3.83
2023-01-19T20:50:12.109Z,4.30
2023-01-19T20:52:49.742Z,3.78
2023-01-19T20:55:21.959Z,4.31
2023-01-19T20:57:54.157Z,3.55
2023-01-19T21:00:26.832Z,3.05
2023-01-19T21:03:03.001Z,3.45
2023-01-19T21:05:36.763Z,3.52
2023-01-19T21:08:09.344Z,4.23
2023-01-19T21:10:54.959Z,3.25
2023-01-19T21:13:33.763Z,2.99
2023-01-19T21:16:17.183Z,3.70
2023-01-19T21:18:59.808Z,2.86
2023-01-19T21:21:35.024Z,2.96
2023-01-19T21:24:07.642Z,3.28
2023-01-19T21:26:42.021Z,3.39
2023-01-19T21:29:16.780Z,3.66
2023-01-19T21:31:52.689Z,3.30
2023-01-19T21:34:24.996Z,4.14
2023-01-19T21:36:57.175Z,3.51
2023-01-19T21:39:31.913Z,2.99
2023-01-19T21:42:11.859Z,4.13
2023-01-19T21:44:44.233Z,2.91
2023-01-19T21:47:16.600Z,4.20
2023-01-19T21:49:52.759Z,3.50
2023-01-19T21:52:25.238Z,3.10
2023-01-19T21:55:14.732Z,4.18
2023-01-19T21:57:49.948Z,3.54
2023-01-19T22:00:22.323Z,3.19
2023-01-19T22:03:03.732Z,3.84
2023-01-19T22:05:37.459Z,3.98
2023-01-19T22:08:09.756Z,4.27
2023-01-19T22:10:41.874Z,4.25
2023-01-19T22:13:14.286Z,4.35
2023-01-19T22:15:46.664Z,4.36
2023-01-19T22:18:21.732Z,3.98
2023-01-19T22:20:54.093Z,4.49
2023-01-19T22:23:29.246Z,3.86
2023-01-19T22:26:01.738Z,4.45
2023-01-19T22:28:37.978Z,4.37
2023-01-19T22:31:17.485Z,3.85
2023-01-19T22:33:51.559Z,3.76
2023-01-19T22:36:35.836Z,3.98
2023-01-19T22:39:11.567Z,4.47
2023-01-19T22:41:47.312Z,4.33
2023-01-19T22:44:27.469Z,4.43
2023-01-19T22:47:08.634Z,4.46
2023-01-19T22:49:40.952Z,3.92
2023-01-19T22:52:15.331Z,3.37
2023-01-19T22:54:52.410Z,3.48
2023-01-19T22:57:27.757Z,3.88
2023-01-19T23:02:46.286Z,4.45
2023-01-19T23:05:18.400Z,3.81
2023-01-19T23:07:51.170Z,4.43
2023-01-19T23:10:23.231Z,4.50
2023-01-19T23:12:55.505Z,4.49
2023-01-19T23:15:27.485Z,4.41
2023-01-19T23:17:59.935Z,4.45
2023-01-19T23:20:32.049Z,4.43
2023-01-19T23:23:07.144Z,4.38
2023-01-19T23:25:39.201Z,4.24
2023-01-19T23:28:11.259Z,4.40
2023-01-19T23:30:43.401Z,4.30
2023-01-19T23:33:15.575Z,4.38
2023-01-19T23:35:47.670Z,3.88
2023-01-19T23:38:21.662Z,4.38
2023-01-19T23:40:57.942Z,4.31
2023-01-19T23:43:30.209Z,4.13
2023-01-19T23:46:04.739Z,3.83
2023-01-19T23:48:37.159Z,4.30
2023-01-19T23:51:11.593Z,4.31
2023-01-19T23:53:44.174Z,3.57
2023-01-19T23:56:24.481Z,3.04
2023-01-19T23:59:09.077Z,3.88
